sensor_id;sensor_type;location;lat;lon;timestamp;pressure;altitude;pressure_sealevel;temperature;humidity
54936;BME280;40838;50.676;7.838;2023-12-28T00:02:09;97986.59;;;7.75;100.00
54936;BME280;40838;50.676;7.838;2023-12-28T00:04:36;97988.38;;;7.24;100.00
54936;BME280;40838;50.676;7.838;2023-12-28T00:07:05;97970.13;;;7.85;100.00
54936;BME280;40838;50.676;7.838;2023-12-28T00:09:31;97956.84;;;7.96;100.00
54936;BME280;40838;50.676;7.838;2023-12-28T00:11:58;97960.78;;;7.26;100.00
54936;BME280;40838;50.676;7.838;2023-12-28T00:14:25;97976.25;;;7.23;100.00
54936;BME280;40838;50.676;7.838;2023-12-28T00:16:52;97973.00;;;7.49;100.00
54936;BME280;40838;50.676;7.838;2023-12-28T00:19:19;97994.75;;;7.57;100.00
54936;BME280;40838;50.676;7.838;2023-12-28T00:21:48;97989.38;;;7.51;100.00
54936;BME280;40838;50.676;7.838;2023-12-28T00:24:16;98007.56;;;7.53;100.00
54936;BME280;40838;50.676;7.838;2023-12-28T00:26:43;98006.22;;;7.34;100.00
54936;BME280;40838;50.676;7.838;2023-12-28T00:29:10;98005.06;;;6.84;100.00
54936;BME280;40838;50.676;7.838;2023-12-28T00:31:37;98020.13;;;6.89;100.00
54936;BME280;40838;50.676;7.838;2023-12-28T00:34:06;98026.69;;;7.03;100.00
54936;BME280;40838;50.676;7.838;2023-12-28T00:36:33;98035.94;;;7.63;100.00
54936;BME280;40838;50.676;7.838;2023-12-28T00:39:03;98042.13;;;7.40;100.00
54936;BME280;40838;50.676;7.838;2023-12-28T00:41:31;98056.38;;;7.72;100.00
54936;BME280;40838;50.676;7.838;2023-12-28T00:43:58;98065.16;;;7.78;100.00
54936;BME280;40838;50.676;7.838;2023-12-28T00:46:26;98051.88;;;7.73;100.00
54936;BME280;40838;50.676;7.838;2023-12-28T00:48:53;98051.31;;;7.54;100.00
54936;BME280;40838;50.676;7.838;2023-12-28T00:51:20;98055.44;;;7.50;100.00
54936;BME280;40838;50.676;7.838;2023-12-28T00:53:48;98058.16;;;7.38;100.00
54936;BME280;40838;50.676;7.838;2023-12-28T00:56:16;98037.69;;;7.91;100.00
54936;BME280;40838;50.676;7.838;2023-12-28T00:58:44;98048.88;;;7.81;100.00
54936;BME280;40838;50.676;7.838;2023-12-28T01:01:11;98047.09;;;7.70;100.00
54936;BME280;40838;50.676;7.838;2023-12-28T01:03:39;98053.94;;;7.71;100.00
54936;BME280;40838;50.676;7.838;2023-12-28T01:06:06;98059.47;;;8.03;100.00
54936;BME280;40838;50.676;7.838;2023-12-28T01:08:33;98057.88;;;8.02;100.00
54936;BME280;40838;50.676;7.838;2023-12-28T01:11:00;98058.84;;;7.79;100.00
54936;BME280;40838;50.676;7.838;2023-12-28T01:13:28;98081.84;;;7.84;100.00
54936;BME280;40838;50.676;7.838;2023-12-28T01:15:58;98086.09;;;7.39;100.00
54936;BME280;40838;50.676;7.838;2023-12-28T01:18:25;98091.22;;;7.46;100.00
54936;BME280;40838;50.676;7.838;2023-12-28T01:20:52;98106.13;;;7.40;100.00
54936;BME280;40838;50.676;7.838;2023-12-28T01:23:20;98112.88;;;7.07;100.00
54936;BME280;40838;50.676;7.838;2023-12-28T01:25:47;98106.63;;;7.25;100.00
54936;BME280;40838;50.676;7.838;2023-12-28T01:28:14;98107.13;;;7.11;100.00
54936;BME280;40838;50.676;7.838;2023-12-28T01:30:41;98103.06;;;6.79;100.00
54936;BME280;40838;50.676;7.838;2023-12-28T01:33:11;98109.06;;;6.51;100.00
54936;BME280;40838;50.676;7.838;2023-12-28T01:35:38;98104.25;;;6.60;100.00
54936;BME280;40838;50.676;7.838;2023-12-28T01:38:05;98103.66;;;6.81;100.00
54936;BME280;40838;50.676;7.838;2023-12-28T01:40:31;98109.53;;;6.60;100.00
54936;BME280;40838;50.676;7.838;2023-12-28T01:42:58;98109.38;;;6.78;100.00
54936;BME280;40838;50.676;7.838;2023-12-28T01:45:25;98113.00;;;6.89;100.00
54936;BME280;40838;50.676;7.838;2023-12-28T01:47:53;98121.59;;;6.96;100.00
54936;BME280;40838;50.676;7.838;2023-12-28T01:50:26;98111.09;;;6.61;100.00
54936;BME280;40838;50.676;7.838;2023-12-28T01:52:54;98109.59;;;6.77;100.00
54936;BME280;40838;50.676;7.838;2023-12-28T01:55:23;98115.06;;;6.99;100.00
54936;BME280;40838;50.676;7.838;2023-12-28T01:57:51;98106.53;;;7.20;100.00
54936;BME280;40838;50.676;7.838;2023-12-28T02:00:19;98112.22;;;7.58;100.00
54936;BME280;40838;50.676;7.838;2023-12-28T02:02:50;98114.53;;;7.25;100.00
54936;BME280;40838;50.676;7.838;2023-12-28T02:05:19;98117.53;;;7.74;100.00
54936;BME280;40838;50.676;7.838;2023-12-28T02:07:47;98122.16;;;6.98;100.00
54936;BME280;40838;50.676;7.838;2023-12-28T02:10:14;98121.13;;;7.68;100.00
54936;BME280;40838;50.676;7.838;2023-12-28T02:12:42;98129.13;;;7.45;100.00
54936;BME280;40838;50.676;7.838;2023-12-28T02:15:09;98123.31;;;7.31;100.00
54936;BME280;40838;50.676;7.838;2023-12-28T02:17:43;98128.66;;;7.65;100.00
54936;BME280;40838;50.676;7.838;2023-12-28T02:20:12;98132.31;;;7.92;100.00
54936;BME280;40838;50.676;7.838;2023-12-28T02:22:42;98133.03;;;7.59;100.00
54936;BME280;40838;50.676;7.838;2023-12-28T02:25:10;98131.50;;;7.06;100.00
54936;BME280;40838;50.676;7.838;2023-12-28T02:27:40;98122.06;;;7.34;100.00
54936;BME280;40838;50.676;7.838;2023-12-28T02:30:09;98101.63;;;7.41;100.00
54936;BME280;40838;50.676;7.838;2023-12-28T02:32:44;98095.47;;;7.35;100.00
54936;BME280;40838;50.676;7.838;2023-12-28T02:35:17;98103.50;;;7.00;100.00
54936;BME280;40838;50.676;7.838;2023-12-28T02:37:47;98108.84;;;7.45;100.00
54936;BME280;40838;50.676;7.838;2023-12-28T02:40:18;98108.50;;;7.42;100.00
54936;BME280;40838;50.676;7.838;2023-12-28T02:42:45;98104.31;;;7.58;100.00
54936;BME280;40838;50.676;7.838;2023-12-28T02:45:13;98118.97;;;7.99;100.00
54936;BME280;40838;50.676;7.838;2023-12-28T02:47:40;98114.91;;;7.91;100.00
54936;BME280;40838;50.676;7.838;2023-12-28T02:50:07;98122.34;;;7.49;100.00
54936;BME280;40838;50.676;7.838;2023-12-28T02:52:34;98117.81;;;7.61;100.00
54936;BME280;40838;50.676;7.838;2023-12-28T02:55:01;98104.34;;;7.91;100.00
54936;BME280;40838;50.676;7.838;2023-12-28T02:57:30;98117.81;;;8.07;100.00
54936;BME280;40838;50.676;7.838;2023-12-28T02:59:56;98118.59;;;7.45;100.00
54936;BME280;40838;50.676;7.838;2023-12-28T03:02:27;98112.88;;;7.65;100.00
54936;BME280;40838;50.676;7.838;2023-12-28T03:04:54;98118.38;;;7.63;100.00
54936;BME280;40838;50.676;7.838;2023-12-28T03:07:21;98119.47;;;7.22;100.00
54936;BME280;40838;50.676;7.838;2023-12-28T03:09:48;98120.41;;;7.90;100.00
54936;BME280;40838;50.676;7.838;2023-12-28T03:12:15;98111.81;;;7.08;100.00
54936;BME280;40838;50.676;7.838;2023-12-28T03:14:44;98112.88;;;7.07;100.00
54936;BME280;40838;50.676;7.838;2023-12-28T03:17:11;98113.31;;;7.45;100.00
54936;BME280;40838;50.676;7.838;2023-12-28T03:19:38;98122.97;;;6.87;100.00
54936;BME280;40838;50.676;7.838;2023-12-28T03:22:05;98115.97;;;7.62;100.00
54936;BME280;40838;50.676;7.838;2023-12-28T03:24:32;98104.31;;;7.29;100.00
54936;BME280;40838;50.676;7.838;2023-12-28T03:26:59;98113.34;;;7.04;100.00
54936;BME280;40838;50.676;7.838;2023-12-28T03:29:27;98124.91;;;7.32;100.00
54936;BME280;40838;50.676;7.838;2023-12-28T03:31:56;98137.78;;;7.17;100.00
54936;BME280;40838;50.676;7.838;2023-12-28T03:34:23;98134.00;;;7.24;100.00
54936;BME280;40838;50.676;7.838;2023-12-28T03:36:51;98135.84;;;7.12;100.00
54936;BME280;40838;50.676;7.838;2023-12-28T03:39:18;98140.81;;;6.73;100.00
54936;BME280;40838;50.676;7.838;2023-12-28T03:41:45;98132.28;;;6.54;100.00
54936;BME280;40838;50.676;7.838;2023-12-28T03:44:13;98127.25;;;7.17;100.00
54936;BME280;40838;50.676;7.838;2023-12-28T03:46:40;98134.69;;;7.20;100.00
54936;BME280;40838;50.676;7.838;2023-12-28T03:49:08;98133.25;;;6.89;100.00
54936;BME280;40838;50.676;7.838;2023-12-28T03:51:35;98130.72;;;7.46;100.00
54936;BME280;40838;50.676;7.838;2023-12-28T03:54:02;98147.56;;;7.45;100.00
54936;BME280;40838;50.676;7.838;2023-12-28T03:56:32;98149.50;;;7.38;100.00
54936;BME280;40838;50.676;7.838;2023-12-28T03:59:01;98151.47;;;6.90;100.00
54936;BME280;40838;50.676;7.838;2023-12-28T04:01:27;98148.34;;;7.05;100.00
54936;BME280;40838;50.676;7.838;2023-12-28T04:03:54;98153.16;;;7.48;100.00
54936;BME280;40838;50.676;7.838;2023-12-28T04:06:23;98156.03;;;7.35;100.00
54936;BME280;40838;50.676;7.838;2023-12-28T04:08:50;98158.53;;;7.53;100.00
54936;BME280;40838;50.676;7.838;2023-12-28T04:11:16;98157.81;;;7.06;100.00
54936;BME280;40838;50.676;7.838;2023-12-28T04:13:43;98154.66;;;7.32;100.00
54936;BME280;40838;50.676;7.838;2023-12-28T04:16:12;98152.22;;;7.14;100.00
54936;BME280;40838;50.676;7.838;2023-12-28T04:18:39;98147.06;;;7.19;100.00
54936;BME280;40838;50.676;7.838;2023-12-28T04:21:08;98146.94;;;7.14;100.00
54936;BME280;40838;50.676;7.838;2023-12-28T04:23:37;98148.28;;;7.28;100.00
54936;BME280;40838;50.676;7.838;2023-12-28T04:26:05;98151.13;;;6.87;100.00
54936;BME280;40838;50.676;7.838;2023-12-28T04:28:32;98151.28;;;7.20;100.00
54936;BME280;40838;50.676;7.838;2023-12-28T04:31:02;98147.31;;;6.94;100.00
54936;BME280;40838;50.676;7.838;2023-12-28T04:33:29;98142.09;;;6.59;100.00
54936;BME280;40838;50.676;7.838;2023-12-28T04:35:56;98149.72;;;6.96;100.00
54936;BME280;40838;50.676;7.838;2023-12-28T04:38:23;98145.63;;;6.88;100.00
54936;BME280;40838;50.676;7.838;2023-12-28T04:40:53;98146.78;;;6.80;100.00
54936;BME280;40838;50.676;7.838;2023-12-28T04:43:19;98143.69;;;6.83;100.00
54936;BME280;40838;50.676;7.838;2023-12-28T04:45:49;98133.00;;;7.02;100.00
54936;BME280;40838;50.676;7.838;2023-12-28T04:48:16;98137.38;;;6.84;100.00
54936;BME280;40838;50.676;7.838;2023-12-28T04:50:46;98138.13;;;7.20;100.00
54936;BME280;40838;50.676;7.838;2023-12-28T04:53:15;98130.50;;;7.07;100.00
54936;BME280;40838;50.676;7.838;2023-12-28T04:55:42;98125.06;;;7.25;100.00
54936;BME280;40838;50.676;7.838;2023-12-28T04:58:11;98115.38;;;7.88;100.00
54936;BME280;40838;50.676;7.838;2023-12-28T05:00:38;98118.81;;;7.03;100.00
54936;BME280;40838;50.676;7.838;2023-12-28T05:03:05;98131.19;;;7.43;100.00
54936;BME280;40838;50.676;7.838;2023-12-28T05:05:32;98130.31;;;7.25;100.00
54936;BME280;40838;50.676;7.838;2023-12-28T05:07:59;98133.56;;;7.16;100.00
54936;BME280;40838;50.676;7.838;2023-12-28T05:10:27;98131.34;;;7.53;100.00
54936;BME280;40838;50.676;7.838;2023-12-28T05:12:53;98127.47;;;7.15;100.00
54936;BME280;40838;50.676;7.838;2023-12-28T05:15:22;98131.25;;;7.76;100.00
54936;BME280;40838;50.676;7.838;2023-12-28T05:17:49;98128.81;;;7.29;100.00
54936;BME280;40838;50.676;7.838;2023-12-28T05:20:16;98135.19;;;7.45;100.00
54936;BME280;40838;50.676;7.838;2023-12-28T05:22:44;98127.28;;;7.74;100.00
54936;BME280;40838;50.676;7.838;2023-12-28T05:25:10;98134.88;;;7.87;100.00
54936;BME280;40838;50.676;7.838;2023-12-28T05:27:37;98137.94;;;7.67;100.00
54936;BME280;40838;50.676;7.838;2023-12-28T05:30:06;98140.50;;;7.79;100.00
54936;BME280;40838;50.676;7.838;2023-12-28T05:32:34;98144.75;;;7.23;100.00
54936;BME280;40838;50.676;7.838;2023-12-28T05:35:01;98135.72;;;7.47;100.00
54936;BME280;40838;50.676;7.838;2023-12-28T05:37:28;98139.56;;;7.40;100.00
54936;BME280;40838;50.676;7.838;2023-12-28T05:39:55;98142.28;;;7.45;100.00
54936;BME280;40838;50.676;7.838;2023-12-28T05:42:23;98146.41;;;7.41;100.00
54936;BME280;40838;50.676;7.838;2023-12-28T05:44:49;98141.19;;;7.29;100.00
54936;BME280;40838;50.676;7.838;2023-12-28T05:47:16;98148.16;;;7.64;100.00
54936;BME280;40838;50.676;7.838;2023-12-28T05:49:44;98149.63;;;7.71;100.00
54936;BME280;40838;50.676;7.838;2023-12-28T05:52:11;98141.09;;;7.52;100.00
54936;BME280;40838;50.676;7.838;2023-12-28T05:54:40;98143.84;;;7.58;100.00
54936;BME280;40838;50.676;7.838;2023-12-28T05:57:08;98152.53;;;8.20;100.00
54936;BME280;40838;50.676;7.838;2023-12-28T05:59:37;98152.03;;;7.90;100.00
54936;BME280;40838;50.676;7.838;2023-12-28T06:02:04;98150.03;;;7.97;100.00
54936;BME280;40838;50.676;7.838;2023-12-28T06:04:31;98152.47;;;7.98;100.00
54936;BME280;40838;50.676;7.838;2023-12-28T06:07:00;98155.63;;;7.84;100.00
54936;BME280;40838;50.676;7.838;2023-12-28T06:09:27;98148.78;;;7.71;100.00
54936;BME280;40838;50.676;7.838;2023-12-28T06:11:54;98144.63;;;7.87;100.00
54936;BME280;40838;50.676;7.838;2023-12-28T06:14:21;98151.16;;;7.56;100.00
54936;BME280;40838;50.676;7.838;2023-12-28T06:16:47;98152.19;;;7.54;100.00
54936;BME280;40838;50.676;7.838;2023-12-28T06:19:14;98150.09;;;7.68;100.00
54936;BME280;40838;50.676;7.838;2023-12-28T06:21:41;98157.25;;;8.02;100.00
54936;BME280;40838;50.676;7.838;2023-12-28T06:24:09;98153.28;;;7.70;100.00
54936;BME280;40838;50.676;7.838;2023-12-28T06:26:39;98146.22;;;8.05;100.00
54936;BME280;40838;50.676;7.838;2023-12-28T06:29:06;98151.13;;;8.13;100.00
54936;BME280;40838;50.676;7.838;2023-12-28T06:31:33;98144.84;;;7.85;100.00
54936;BME280;40838;50.676;7.838;2023-12-28T06:34:01;98152.63;;;7.92;100.00
54936;BME280;40838;50.676;7.838;2023-12-28T06:36:28;98152.88;;;8.07;100.00
54936;BME280;40838;50.676;7.838;2023-12-28T06:38:55;98152.31;;;7.76;100.00
54936;BME280;40838;50.676;7.838;2023-12-28T06:41:23;98157.09;;;8.08;100.00
54936;BME280;40838;50.676;7.838;2023-12-28T06:43:50;98151.19;;;8.18;100.00
54936;BME280;40838;50.676;7.838;2023-12-28T06:46:17;98159.31;;;7.99;100.00
54936;BME280;40838;50.676;7.838;2023-12-28T06:48:45;98153.91;;;8.06;100.00
54936;BME280;40838;50.676;7.838;2023-12-28T06:51:16;98149.25;;;7.96;100.00
54936;BME280;40838;50.676;7.838;2023-12-28T06:53:43;98152.78;;;8.19;100.00
54936;BME280;40838;50.676;7.838;2023-12-28T06:56:10;98178.88;;;7.87;100.00
54936;BME280;40838;50.676;7.838;2023-12-28T06:58:38;98167.88;;;8.23;100.00
54936;BME280;40838;50.676;7.838;2023-12-28T07:01:05;98170.09;;;8.27;100.00
54936;BME280;40838;50.676;7.838;2023-12-28T07:03:32;98186.63;;;8.39;100.00
54936;BME280;40838;50.676;7.838;2023-12-28T07:05:59;98161.94;;;8.62;100.00
54936;BME280;40838;50.676;7.838;2023-12-28T07:08:26;98174.72;;;8.36;100.00
54936;BME280;40838;50.676;7.838;2023-12-28T07:10:53;98173.03;;;8.64;100.00
54936;BME280;40838;50.676;7.838;2023-12-28T07:13:20;98178.44;;;8.07;100.00
54936;BME280;40838;50.676;7.838;2023-12-28T07:15:48;98179.91;;;8.65;100.00
54936;BME280;40838;50.676;7.838;2023-12-28T07:18:15;98192.03;;;8.15;100.00
54936;BME280;40838;50.676;7.838;2023-12-28T07:20:42;98184.25;;;8.09;100.00
54936;BME280;40838;50.676;7.838;2023-12-28T07:23:09;98187.75;;;8.43;100.00
54936;BME280;40838;50.676;7.838;2023-12-28T07:25:36;98175.00;;;8.06;100.00
54936;BME280;40838;50.676;7.838;2023-12-28T07:28:03;98168.88;;;8.34;100.00
54936;BME280;40838;50.676;7.838;2023-12-28T07:30:30;98178.56;;;8.00;100.00
54936;BME280;40838;50.676;7.838;2023-12-28T07:32:59;98179.91;;;8.31;100.00
54936;BME280;40838;50.676;7.838;2023-12-28T07:35:25;98184.88;;;8.44;100.00
54936;BME280;40838;50.676;7.838;2023-12-28T07:37:52;98189.66;;;8.64;100.00
54936;BME280;40838;50.676;7.838;2023-12-28T07:40:20;98190.13;;;8.61;100.00
54936;BME280;40838;50.676;7.838;2023-12-28T07:42:46;98189.84;;;8.97;100.00
54936;BME280;40838;50.676;7.838;2023-12-28T07:45:13;98188.06;;;8.47;100.00
54936;BME280;40838;50.676;7.838;2023-12-28T07:47:39;98191.44;;;8.42;100.00
54936;BME280;40838;50.676;7.838;2023-12-28T07:50:08;98191.19;;;8.60;100.00
54936;BME280;40838;50.676;7.838;2023-12-28T07:52:36;98189.09;;;8.46;100.00
54936;BME280;40838;50.676;7.838;2023-12-28T07:55:04;98191.34;;;8.37;100.00
54936;BME280;40838;50.676;7.838;2023-12-28T07:57:31;98194.84;;;8.76;100.00
54936;BME280;40838;50.676;7.838;2023-12-28T07:59:57;98189.72;;;8.70;100.00
54936;BME280;40838;50.676;7.838;2023-12-28T08:02:24;98197.59;;;8.48;100.00
54936;BME280;40838;50.676;7.838;2023-12-28T08:05:00;98198.44;;;8.70;100.00
54936;BME280;40838;50.676;7.838;2023-12-28T08:07:28;98202.19;;;8.91;100.00
54936;BME280;40838;50.676;7.838;2023-12-28T08:09:55;98214.44;;;8.63;100.00
54936;BME280;40838;50.676;7.838;2023-12-28T08:12:22;98206.78;;;8.62;100.00
54936;BME280;40838;50.676;7.838;2023-12-28T08:14:49;98207.09;;;8.65;100.00
54936;BME280;40838;50.676;7.838;2023-12-28T08:17:16;98220.63;;;8.07;100.00
54936;BME280;40838;50.676;7.838;2023-12-28T08:19:43;98216.97;;;8.92;100.00
54936;BME280;40838;50.676;7.838;2023-12-28T08:22:10;98206.69;;;8.11;100.00
54936;BME280;40838;50.676;7.838;2023-12-28T08:24:38;98213.31;;;8.42;100.00
54936;BME280;40838;50.676;7.838;2023-12-28T08:27:05;98222.72;;;7.93;100.00
54936;BME280;40838;50.676;7.838;2023-12-28T08:29:32;98217.47;;;7.93;100.00
54936;BME280;40838;50.676;7.838;2023-12-28T08:31:59;98225.31;;;8.67;100.00
54936;BME280;40838;50.676;7.838;2023-12-28T08:34:25;98228.22;;;8.20;100.00
54936;BME280;40838;50.676;7.838;2023-12-28T08:36:53;98218.63;;;8.59;100.00
54936;BME280;40838;50.676;7.838;2023-12-28T08:39:20;98232.56;;;8.94;100.00
54936;BME280;40838;50.676;7.838;2023-12-28T08:41:48;98226.91;;;8.51;100.00
54936;BME280;40838;50.676;7.838;2023-12-28T08:44:15;98229.94;;;8.43;100.00
54936;BME280;40838;50.676;7.838;2023-12-28T08:46:42;98226.84;;;8.80;100.00
54936;BME280;40838;50.676;7.838;2023-12-28T08:49:09;98216.03;;;8.64;100.00
54936;BME280;40838;50.676;7.838;2023-12-28T08:51:35;98222.78;;;9.11;100.00
54936;BME280;40838;50.676;7.838;2023-12-28T08:54:02;98208.47;;;8.68;100.00
54936;BME280;40838;50.676;7.838;2023-12-28T08:56:29;98233.72;;;8.81;100.00
54936;BME280;40838;50.676;7.838;2023-12-28T08:58:58;98222.50;;;9.29;100.00
54936;BME280;40838;50.676;7.838;2023-12-28T09:01:24;98233.50;;;9.21;100.00
54936;BME280;40838;50.676;7.838;2023-12-28T09:03:53;98228.22;;;9.65;100.00
54936;BME280;40838;50.676;7.838;2023-12-28T09:06:20;98231.91;;;10.13;100.00
54936;BME280;40838;50.676;7.838;2023-12-28T09:08:49;98233.22;;;10.75;100.00
54936;BME280;40838;50.676;7.838;2023-12-28T09:11:17;98235.69;;;10.87;100.00
54936;BME280;40838;50.676;7.838;2023-12-28T09:13:44;98247.31;;;10.81;100.00
54936;BME280;40838;50.676;7.838;2023-12-28T09:16:13;98243.44;;;11.36;100.00
54936;BME280;40838;50.676;7.838;2023-12-28T09:18:41;98246.09;;;12.14;100.00
54936;BME280;40838;50.676;7.838;2023-12-28T09:21:09;98247.50;;;12.58;100.00
54936;BME280;40838;50.676;7.838;2023-12-28T09:23:38;98259.28;;;10.88;100.00
54936;BME280;40838;50.676;7.838;2023-12-28T09:26:06;98268.59;;;11.28;100.00
54936;BME280;40838;50.676;7.838;2023-12-28T09:28:33;98247.25;;;11.08;100.00
54936;BME280;40838;50.676;7.838;2023-12-28T09:31:01;98247.88;;;10.51;100.00
54936;BME280;40838;50.676;7.838;2023-12-28T09:33:32;98267.53;;;10.60;100.00
54936;BME280;40838;50.676;7.838;2023-12-28T09:35:59;98258.97;;;11.22;100.00
54936;BME280;40838;50.676;7.838;2023-12-28T09:38:26;98255.94;;;12.44;100.00
54936;BME280;40838;50.676;7.838;2023-12-28T09:40:54;98257.31;;;12.88;100.00
54936;BME280;40838;50.676;7.838;2023-12-28T09:43:23;98264.88;;;11.97;100.00
54936;BME280;40838;50.676;7.838;2023-12-28T09:45:51;98263.38;;;12.22;100.00
54936;BME280;40838;50.676;7.838;2023-12-28T09:48:18;98262.63;;;11.11;100.00
54936;BME280;40838;50.676;7.838;2023-12-28T09:50:49;98267.56;;;12.13;100.00
54936;BME280;40838;50.676;7.838;2023-12-28T09:53:19;98268.16;;;12.45;100.00
54936;BME280;40838;50.676;7.838;2023-12-28T09:55:48;98265.28;;;12.57;100.00
54936;BME280;40838;50.676;7.838;2023-12-28T09:58:17;98257.03;;;12.59;100.00
54936;BME280;40838;50.676;7.838;2023-12-28T10:00:46;98259.53;;;13.61;100.00
54936;BME280;40838;50.676;7.838;2023-12-28T10:03:13;98262.56;;;13.99;100.00
54936;BME280;40838;50.676;7.838;2023-12-28T10:05:40;98259.94;;;13.03;100.00
54936;BME280;40838;50.676;7.838;2023-12-28T10:08:11;98270.50;;;13.39;100.00
54936;BME280;40838;50.676;7.838;2023-12-28T10:10:37;98270.03;;;13.16;100.00
54936;BME280;40838;50.676;7.838;2023-12-28T10:13:06;98263.66;;;13.07;100.00
54936;BME280;40838;50.676;7.838;2023-12-28T10:15:33;98266.31;;;12.51;100.00
54936;BME280;40838;50.676;7.838;2023-12-28T10:18:00;98269.28;;;12.80;100.00
54936;BME280;40838;50.676;7.838;2023-12-28T10:20:28;98257.28;;;13.03;100.00
54936;BME280;40838;50.676;7.838;2023-12-28T10:22:55;98264.63;;;11.36;100.00
54936;BME280;40838;50.676;7.838;2023-12-28T10:25:23;98269.78;;;12.67;100.00
54936;BME280;40838;50.676;7.838;2023-12-28T10:27:51;98265.47;;;12.20;100.00
54936;BME280;40838;50.676;7.838;2023-12-28T10:30:19;98265.28;;;12.78;100.00
54936;BME280;40838;50.676;7.838;2023-12-28T10:32:47;98261.50;;;12.38;100.00
54936;BME280;40838;50.676;7.838;2023-12-28T10:35:14;98261.47;;;12.12;100.00
54936;BME280;40838;50.676;7.838;2023-12-28T10:37:42;98254.34;;;11.02;100.00
54936;BME280;40838;50.676;7.838;2023-12-28T10:40:12;98266.63;;;10.17;100.00
54936;BME280;40838;50.676;7.838;2023-12-28T10:42:49;98280.06;;;10.37;100.00
54936;BME280;40838;50.676;7.838;2023-12-28T10:45:18;98255.66;;;11.37;100.00
54936;BME280;40838;50.676;7.838;2023-12-28T10:47:54;98253.38;;;11.19;100.00
54936;BME280;40838;50.676;7.838;2023-12-28T10:50:25;98264.78;;;10.17;100.00
54936;BME280;40838;50.676;7.838;2023-12-28T10:52:56;98256.47;;;10.36;100.00
54936;BME280;40838;50.676;7.838;2023-12-28T10:55:33;98255.69;;;11.05;100.00
54936;BME280;40838;50.676;7.838;2023-12-28T10:58:10;98269.66;;;10.31;100.00
54936;BME280;40838;50.676;7.838;2023-12-28T11:00:43;98262.44;;;11.23;100.00
54936;BME280;40838;50.676;7.838;2023-12-28T11:03:18;98253.09;;;10.40;100.00
54936;BME280;40838;50.676;7.838;2023-12-28T11:05:51;98253.13;;;11.68;100.00
54936;BME280;40838;50.676;7.838;2023-12-28T11:08:19;98245.06;;;12.31;100.00
54936;BME280;40838;50.676;7.838;2023-12-28T11:10:48;98242.91;;;12.07;100.00
54936;BME280;40838;50.676;7.838;2023-12-28T11:13:19;98255.72;;;11.52;100.00
54936;BME280;40838;50.676;7.838;2023-12-28T11:15:47;98248.19;;;12.02;100.00
54936;BME280;40838;50.676;7.838;2023-12-28T11:18:17;98242.34;;;10.89;100.00
54936;BME280;40838;50.676;7.838;2023-12-28T11:20:46;98241.19;;;11.18;100.00
54936;BME280;40838;50.676;7.838;2023-12-28T11:23:13;98246.22;;;10.77;100.00
54936;BME280;40838;50.676;7.838;2023-12-28T11:25:40;98230.38;;;11.92;100.00
54936;BME280;40838;50.676;7.838;2023-12-28T11:28:11;98231.78;;;10.57;100.00
54936;BME280;40838;50.676;7.838;2023-12-28T11:30:42;98221.75;;;12.63;100.00
54936;BME280;40838;50.676;7.838;2023-12-28T11:33:10;98230.75;;;11.01;100.00
54936;BME280;40838;50.676;7.838;2023-12-28T11:35:39;98219.47;;;11.73;100.00
54936;BME280;40838;50.676;7.838;2023-12-28T11:38:08;98214.88;;;11.53;100.00
54936;BME280;40838;50.676;7.838;2023-12-28T11:40:39;98197.75;;;11.19;100.00
54936;BME280;40838;50.676;7.838;2023-12-28T11:43:14;98214.16;;;10.73;100.00
54936;BME280;40838;50.676;7.838;2023-12-28T11:45:48;98197.28;;;12.36;100.00
54936;BME280;40838;50.676;7.838;2023-12-28T11:48:22;98204.19;;;12.32;100.00
54936;BME280;40838;50.676;7.838;2023-12-28T11:50:50;98191.38;;;10.35;100.00
54936;BME280;40838;50.676;7.838;2023-12-28T11:53:18;98193.78;;;11.89;100.00
54936;BME280;40838;50.676;7.838;2023-12-28T11:55:51;98197.03;;;12.42;100.00
54936;BME280;40838;50.676;7.838;2023-12-28T11:58:19;98197.72;;;11.76;100.00
54936;BME280;40838;50.676;7.838;2023-12-28T12:00:48;98194.88;;;10.40;100.00
54936;BME280;40838;50.676;7.838;2023-12-28T12:03:15;98206.09;;;10.95;100.00
54936;BME280;40838;50.676;7.838;2023-12-28T12:05:42;98199.94;;;12.20;100.00
54936;BME280;40838;50.676;7.838;2023-12-28T12:08:09;98191.47;;;12.59;100.00
54936;BME280;40838;50.676;7.838;2023-12-28T12:10:39;98189.84;;;12.07;100.00
54936;BME280;40838;50.676;7.838;2023-12-28T12:13:07;98187.41;;;11.17;100.00
54936;BME280;40838;50.676;7.838;2023-12-28T12:15:33;98171.75;;;11.89;100.00
54936;BME280;40838;50.676;7.838;2023-12-28T12:18:02;98168.84;;;11.12;100.00
54936;BME280;40838;50.676;7.838;2023-12-28T12:20:30;98168.06;;;12.00;100.00
54936;BME280;40838;50.676;7.838;2023-12-28T12:22:58;98174.19;;;11.22;100.00
54936;BME280;40838;50.676;7.838;2023-12-28T12:25:28;98174.47;;;12.19;100.00
54936;BME280;40838;50.676;7.838;2023-12-28T12:27:55;98151.34;;;12.10;100.00
54936;BME280;40838;50.676;7.838;2023-12-28T12:30:22;98152.94;;;12.21;100.00
54936;BME280;40838;50.676;7.838;2023-12-28T12:32:49;98147.66;;;12.11;100.00
54936;BME280;40838;50.676;7.838;2023-12-28T12:35:17;98139.44;;;11.87;100.00
54936;BME280;40838;50.676;7.838;2023-12-28T12:37:46;98143.22;;;11.28;100.00
54936;BME280;40838;50.676;7.838;2023-12-28T12:40:15;98134.56;;;11.53;100.00
54936;BME280;40838;50.676;7.838;2023-12-28T12:42:42;98140.19;;;11.67;100.00
54936;BME280;40838;50.676;7.838;2023-12-28T12:45:09;98140.78;;;11.11;100.00
54936;BME280;40838;50.676;7.838;2023-12-28T12:47:36;98134.66;;;11.94;100.00
54936;BME280;40838;50.676;7.838;2023-12-28T12:50:03;98135.59;;;11.31;100.00
54936;BME280;40838;50.676;7.838;2023-12-28T12:52:32;98126.41;;;10.49;100.00
54936;BME280;40838;50.676;7.838;2023-12-28T12:54:59;98133.31;;;11.86;100.00
54936;BME280;40838;50.676;7.838;2023-12-28T12:57:25;98134.06;;;10.93;100.00
54936;BME280;40838;50.676;7.838;2023-12-28T12:59:52;98134.84;;;10.93;100.00
54936;BME280;40838;50.676;7.838;2023-12-28T13:02:22;98133.13;;;10.67;100.00